createdAt,value
2019-04-03T00:00:39.735Z,30.20
2019-04-03T00:01:40.011Z,27.20
2019-04-03T00:02:38.472Z,24.89
2019-04-03T00:03:38.461Z,26.39
2019-04-03T00:04:38.494Z,25.10
2019-04-03T00:05:40.464Z,25.39
2019-04-03T00:06:38.509Z,20.70
2019-04-03T00:07:38.482Z,26.50
2019-04-03T00:08:38.454Z,32.90
2019-04-03T00:09:38.414Z,20.79
2019-04-03T00:11:03.196Z,32.29
2019-04-03T00:12:03.186Z,31.10
2019-04-03T00:14:03.397Z,28.29
2019-04-03T00:15:03.174Z,25.60
2019-04-03T00:16:03.176Z,26.79
2019-04-03T00:17:03.141Z,25.70
2019-04-03T00:18:03.129Z,22.20
2019-04-03T00:19:03.113Z,28.79
2019-04-03T00:20:03.266Z,35.79
2019-04-03T00:21:03.141Z,28.79
2019-04-03T00:22:03.079Z,33.90
2019-04-03T00:23:03.085Z,32.59
2019-04-03T00:24:03.057Z,25.60
2019-04-03T00:25:03.046Z,28.89
2019-04-03T00:26:03.088Z,26.60
2019-04-03T00:27:03.027Z,31.29
2019-04-03T00:28:03.018Z,32.09
2019-04-03T00:29:03.008Z,38.79
2019-04-03T00:30:02.996Z,32.59
2019-04-03T00:31:03.035Z,24.60
2019-04-03T00:32:02.990Z,28.39
2019-04-03T00:33:02.991Z,26.20
2019-04-03T00:34:02.956Z,23.39
2019-04-03T00:35:02.949Z,30.39
2019-04-03T00:36:02.930Z,28.00
2019-04-03T00:37:03.030Z,26.20
2019-04-03T00:38:02.909Z,22.60
2019-04-03T00:39:02.895Z,36.70
2019-04-03T00:40:03.010Z,24.89
2019-04-03T00:41:02.878Z,22.50
2019-04-03T00:42:02.871Z,27.39
2019-04-03T00:43:02.952Z,30.79
2019-04-03T00:44:02.847Z,23.89
2019-04-03T00:45:02.831Z,23.79
2019-04-03T00:46:02.822Z,29.50
2019-04-03T00:47:02.814Z,21.89
2019-04-03T00:48:02.838Z,20.39
2019-04-03T00:49:02.988Z,25.39
2019-04-03T00:50:02.783Z,29.79
2019-04-03T00:51:02.815Z,27.39
2019-04-03T00:52:02.765Z,28.50
2019-04-03T00:53:02.749Z,21.39
2019-04-03T00:54:02.737Z,33.79
2019-04-03T00:57:02.703Z,31.70
2019-04-03T00:58:02.698Z,24.50
2019-04-03T00:59:02.681Z,28.29
2019-04-03T01:00:02.674Z,25.20
2019-04-03T01:01:02.767Z,27.70
2019-04-03T01:02:02.649Z,29.50
2019-04-03T01:03:02.646Z,26.60
2019-04-03T01:04:02.636Z,27.39
2019-04-03T01:05:02.619Z,23.60
2019-04-03T01:06:02.610Z,32.09
2019-04-03T01:07:02.747Z,25.89
2019-04-03T01:08:02.847Z,25.89
2019-04-03T01:09:02.633Z,28.70
2019-04-03T01:10:03.780Z,25.10
2019-04-03T01:11:02.564Z,26.20
2019-04-03T01:12:02.649Z,28.00
2019-04-03T01:13:02.589Z,29.29
2019-04-03T01:14:02.524Z,28.50
2019-04-03T01:15:02.602Z,28.29
2019-04-03T01:16:03.020Z,30.29
2019-04-03T01:17:04.360Z,27.60
2019-04-03T01:18:04.281Z,37.79
2019-04-03T01:19:05.098Z,51.00
2019-04-03T01:20:02.552Z,40.59
2019-04-03T01:21:27.281Z,36.20
2019-04-03T01:23:52.242Z,38.79
2019-04-03T01:24:52.060Z,39.79
2019-04-03T01:25:53.257Z,46.70
2019-04-03T01:26:52.016Z,65.50
2019-04-03T01:27:53.368Z,39.20
2019-04-03T01:28:52.198Z,56.20
2019-04-03T01:30:17.668Z,52.70
2019-04-03T01:30:53.248Z,41.70
2019-04-03T01:31:51.976Z,44.90
2019-04-03T01:32:52.024Z,41.29
2019-04-03T01:33:52.021Z,49.70
2019-04-03T01:34:51.933Z,45.29
2019-04-03T01:35:51.925Z,41.90
2019-04-03T01:36:51.913Z,39.59
2019-04-03T01:37:52.158Z,34.40
2019-04-03T01:38:51.896Z,42.70
2019-04-03T01:39:51.881Z,41.20
2019-04-03T01:40:51.874Z,42.59
2019-04-03T01:41:52.078Z,36.59
2019-04-03T01:43:16.727Z,53.50
2019-04-03T01:44:16.853Z,50.90
2019-04-03T01:45:16.636Z,46.79
2019-04-03T01:46:16.831Z,36.50
2019-04-03T01:47:16.653Z,39.50
2019-04-03T01:48:16.711Z,36.90
2019-04-03T01:49:16.597Z,38.20
2019-04-03T01:50:16.784Z,28.20
2019-04-03T01:51:16.574Z,30.00
2019-04-03T01:52:16.932Z,28.60
2019-04-03T01:54:16.654Z,37.79
2019-04-03T01:55:16.543Z,46.50
2019-04-03T01:56:16.531Z,33.00
2019-04-03T01:57:16.546Z,30.60
2019-04-03T01:58:16.507Z,26.29
2019-04-03T01:59:16.597Z,25.89
2019-04-03T02:00:16.575Z,31.50
2019-04-03T02:01:16.555Z,19.50
2019-04-03T02:02:16.467Z,39.40
2019-04-03T02:03:16.499Z,34.40
2019-04-03T02:05:43.271Z,33.50
2019-04-03T02:06:41.801Z,39.90
2019-04-03T02:07:44.465Z,53.00
2019-04-03T02:08:41.505Z,51.70
2019-04-03T02:09:41.303Z,47.09
2019-04-03T02:10:41.496Z,31.10
2019-04-03T02:11:41.287Z,41.09
2019-04-03T02:12:41.277Z,46.59
2019-04-03T02:13:41.362Z,40.79
2019-04-03T02:14:41.261Z,40.40
2019-04-03T02:15:41.298Z,43.59
2019-04-03T02:16:41.232Z,40.40
2019-04-03T02:17:41.235Z,39.59
2019-04-03T02:18:41.268Z,45.79
2019-04-03T02:19:41.237Z,42.40
2019-04-03T02:20:41.251Z,57.90
2019-04-03T02:21:41.181Z,47.00
2019-04-03T02:22:41.181Z,38.70
2019-04-03T02:23:48.604Z,47.70
2019-04-03T02:25:06.221Z,62.29
2019-04-03T02:26:06.255Z,58.29
2019-04-03T02:27:05.958Z,41.59
2019-04-03T02:28:05.928Z,40.70
2019-04-03T02:29:08.222Z,37.90
2019-04-03T02:30:05.913Z,54.90
2019-04-03T02:32:06.190Z,54.29
2019-04-03T02:33:05.905Z,47.70
2019-04-03T02:34:05.909Z,49.50
2019-04-03T02:35:07.773Z,43.90
2019-04-03T02:36:05.872Z,44.20
2019-04-03T02:37:05.930Z,49.50
2019-04-03T02:38:05.883Z,43.20
2019-04-03T02:39:05.867Z,42.20
2019-04-03T02:40:07.802Z,32.00
2019-04-03T02:41:05.831Z,38.00
2019-04-03T02:42:30.698Z,35.20
2019-04-03T02:43:30.853Z,33.09
2019-04-03T02:44:30.674Z,35.59
2019-04-03T02:45:30.794Z,38.79
2019-04-03T02:46:59.719Z,41.40
2019-04-03T02:47:55.503Z,41.90
2019-04-03T02:48:55.730Z,36.90
2019-04-03T02:49:55.790Z,46.90
2019-04-03T02:50:55.427Z,43.29
2019-04-03T02:51:55.607Z,36.00
2019-04-03T02:52:58.001Z,42.50
2019-04-03T02:53:55.441Z,40.90
2019-04-03T02:54:55.445Z,47.79
2019-04-03T02:56:20.181Z,35.79
2019-04-03T02:57:20.229Z,42.29
2019-04-03T02:58:22.736Z,42.59
2019-04-03T02:59:20.393Z,46.59
2019-04-03T03:00:20.136Z,41.00
2019-04-03T03:01:20.146Z,45.70
2019-04-03T03:02:20.280Z,51.79
2019-04-03T03:03:20.308Z,44.59
2019-04-03T03:04:21.930Z,49.00
2019-04-03T03:05:26.893Z,43.70
2019-04-03T03:06:20.116Z,46.59
2019-04-03T03:07:23.399Z,58.59
2019-04-03T03:08:22.755Z,52.29
2019-04-03T03:10:20.621Z,54.90
2019-04-03T03:11:24.511Z,72.40
2019-04-03T03:12:20.215Z,70.90
2019-04-03T03:13:20.008Z,65.90
2019-04-03T03:14:20.066Z,60.79
2019-04-03T03:15:45.531Z,72.50
2019-04-03T03:16:44.819Z,70.90
2019-04-03T03:17:45.259Z,58.90
2019-04-03T03:18:59.891Z,72.19
2019-04-03T03:20:11.541Z,57.50
2019-04-03T03:21:12.036Z,48.29
2019-04-03T03:22:09.636Z,51.00
2019-04-03T03:23:09.581Z,52.79
2019-04-03T03:24:29.750Z,55.59
2019-04-03T03:25:09.647Z,57.29
2019-04-03T03:26:09.867Z,58.20
2019-04-03T03:27:10.224Z,60.50
2019-04-03T03:28:13.199Z,52.40
2019-04-03T03:29:17.861Z,48.50
2019-04-03T03:30:32.722Z,62.09
2019-04-03T03:31:11.881Z,56.50
2019-04-03T03:32:18.879Z,58.59
2019-04-03T03:33:37.517Z,57.09
2019-04-03T03:34:51.308Z,60.59
2019-04-03T03:35:42.079Z,66.00
2019-04-03T03:37:59.676Z,80.50
2019-04-03T03:38:59.635Z,83.80
2019-04-03T03:39:59.487Z,80.00
2019-04-03T03:40:59.502Z,65.59
2019-04-03T03:41:59.471Z,76.00
2019-04-03T03:43:59.415Z,67.30
2019-04-03T03:45:32.655Z,63.90
2019-04-03T03:45:59.220Z,68.00
2019-04-03T03:47:01.031Z,68.00
2019-04-03T03:47:59.232Z,63.50
2019-04-03T03:50:25.132Z,46.40
2019-04-03T03:51:24.311Z,55.09
2019-04-03T03:52:49.065Z,48.20
2019-04-03T03:53:48.828Z,50.90
2019-04-03T03:54:51.245Z,49.59
2019-04-03T03:56:49.133Z,53.29
2019-04-03T03:57:50.790Z,50.50
2019-04-03T03:58:48.845Z,45.90
2019-04-03T04:00:13.575Z,38.00
2019-04-03T04:01:13.586Z,38.20
2019-04-03T04:04:15.321Z,44.59
2019-04-03T04:05:20.030Z,43.59
2019-04-03T04:06:14.840Z,38.70
2019-04-03T04:07:13.614Z,37.50
2019-04-03T04:10:38.806Z,44.29
2019-04-03T04:11:38.464Z,50.00
2019-04-03T04:13:03.570Z,39.09
2019-04-03T04:14:03.237Z,36.09
2019-04-03T04:15:03.200Z,36.70
2019-04-03T04:16:04.879Z,33.79
2019-04-03T04:17:03.220Z,35.50
2019-04-03T04:18:03.243Z,37.90
2019-04-03T04:19:03.186Z,31.29
2019-04-03T04:20:05.326Z,36.59
2019-04-03T04:21:03.627Z,32.09
2019-04-03T04:24:03.112Z,22.20
2019-04-03T04:25:03.158Z,25.79
2019-04-03T04:26:05.087Z,22.00
2019-04-03T04:27:28.043Z,21.79
2019-04-03T04:28:28.041Z,24.29
2019-04-03T04:29:29.865Z,25.70
2019-04-03T04:30:52.876Z,26.20
2019-04-03T04:31:52.656Z,26.50
2019-04-03T04:32:52.701Z,24.39
2019-04-03T04:34:52.680Z,20.29
2019-04-03T04:35:53.226Z,29.70
2019-04-03T04:36:53.053Z,25.00
2019-04-03T04:37:56.662Z,22.50
2019-04-03T04:38:57.929Z,25.79
2019-04-03T04:39:52.579Z,21.70
2019-04-03T04:40:52.768Z,24.20
2019-04-03T04:41:52.553Z,24.29
2019-04-03T04:42:52.544Z,23.39
2019-04-03T04:43:52.565Z,28.10
2019-04-03T04:44:52.523Z,27.00
2019-04-03T04:45:52.557Z,21.89
2019-04-03T04:46:52.551Z,23.89
2019-04-03T04:47:52.493Z,30.50
2019-04-03T04:48:52.493Z,28.00
2019-04-03T04:49:53.593Z,31.20
2019-04-03T04:50:54.228Z,29.60
2019-04-03T04:51:52.572Z,28.20
2019-04-03T04:52:52.745Z,30.60
2019-04-03T04:53:53.637Z,23.70
2019-04-03T04:54:55.654Z,29.50
2019-04-03T04:55:52.413Z,30.00
2019-04-03T04:56:52.420Z,28.20
2019-04-03T04:58:19.079Z,23.00
2019-04-03T04:59:17.374Z,23.60
2019-04-03T05:00:17.489Z,23.89
2019-04-03T05:01:18.140Z,28.39
2019-04-03T05:02:17.875Z,31.10
2019-04-03T05:03:17.300Z,19.20
2019-04-03T05:04:17.539Z,23.70
2019-04-03T05:05:17.292Z,21.60
2019-04-03T05:06:17.267Z,21.70
2019-04-03T05:07:20.544Z,26.20
2019-04-03T05:08:17.293Z,27.60
2019-04-03T05:09:17.341Z,25.10
2019-04-03T05:10:17.902Z,29.70
2019-04-03T05:11:17.274Z,24.60
2019-04-03T05:12:44.482Z,17.29
2019-04-03T05:13:46.375Z,17.39
2019-04-03T05:14:46.892Z,21.00
2019-04-03T05:15:42.196Z,17.70
2019-04-03T05:17:07.706Z,18.39
2019-04-03T05:17:42.003Z,17.70
2019-04-03T05:18:41.975Z,22.10
2019-04-03T05:21:08.750Z,17.10
2019-04-03T05:22:07.006Z,22.00
2019-04-03T05:23:08.943Z,23.00
2019-04-03T05:24:12.819Z,22.70
2019-04-03T05:25:31.568Z,18.00
2019-04-03T05:26:32.189Z,16.70
2019-04-03T05:27:33.338Z,23.60
2019-04-03T05:28:34.187Z,23.10
2019-04-03T05:29:34.203Z,25.29
2019-04-03T05:30:31.498Z,18.29
2019-04-03T05:31:31.465Z,22.79
2019-04-03T05:32:31.900Z,20.39
2019-04-03T05:33:31.500Z,21.39
2019-04-03T05:34:31.500Z,22.39
2019-04-03T05:35:31.435Z,20.60
2019-04-03T05:36:31.433Z,17.00
2019-04-03T05:37:31.606Z,20.00
2019-04-03T05:38:37.406Z,20.39
2019-04-03T05:39:31.383Z,22.29
2019-04-03T05:40:38.668Z,26.29
2019-04-03T05:41:58.517Z,28.70
2019-04-03T05:43:00.206Z,26.89
2019-04-03T05:43:56.287Z,16.89
2019-04-03T05:44:56.147Z,15.89
2019-04-03T05:45:57.365Z,15.69
2019-04-03T05:46:58.974Z,19.50
2019-04-03T05:47:56.123Z,19.60
2019-04-03T05:48:56.109Z,20.00
2019-04-03T05:49:56.486Z,20.10
2019-04-03T05:50:58.139Z,18.79
2019-04-03T05:51:56.077Z,15.89
2019-04-03T05:52:56.065Z,16.39
2019-04-03T05:53:56.306Z,13.89
2019-04-03T05:54:56.048Z,21.29
2019-04-03T05:55:56.131Z,16.50
2019-04-03T05:56:56.077Z,17.00
2019-04-03T05:57:56.220Z,23.39
2019-04-03T05:59:00.393Z,21.20
2019-04-03T06:00:13.674Z,19.39
2019-04-03T06:02:14.050Z,16.60
2019-04-03T06:03:21.889Z,28.39
2019-04-03T06:04:45.837Z,21.60
2019-04-03T06:05:45.584Z,19.70
2019-04-03T06:06:46.869Z,20.79
2019-04-03T06:08:45.548Z,21.70
2019-04-03T06:09:45.533Z,14.60
2019-04-03T06:10:45.530Z,27.89
2019-04-03T06:11:45.524Z,19.39
2019-04-03T06:12:46.349Z,24.70
2019-04-03T06:13:48.575Z,28.29
2019-04-03T06:14:45.532Z,18.20
2019-04-03T06:15:45.712Z,42.29
2019-04-03T06:16:45.538Z,27.50
2019-04-03T06:18:10.498Z,15.50
2019-04-03T06:19:10.413Z,15.80
2019-04-03T06:20:11.344Z,17.70
2019-04-03T06:21:10.472Z,70.30
2019-04-03T06:22:10.759Z,15.50
2019-04-03T06:23:10.502Z,17.89
2019-04-03T06:25:35.199Z,20.79
2019-04-03T06:26:59.913Z,19.39
2019-04-03T06:28:00.412Z,17.79
2019-04-03T06:29:35.157Z,20.10
2019-04-03T06:30:02.103Z,22.60
2019-04-03T06:31:27.813Z,19.39
2019-04-03T06:31:59.915Z,18.60
2019-04-03T06:33:01.963Z,15.10
2019-04-03T06:34:01.845Z,20.50
2019-04-03T06:35:00.042Z,18.29
2019-04-03T06:35:59.857Z,14.50
2019-04-03T06:36:59.856Z,16.79
2019-04-03T06:37:59.819Z,13.60
2019-04-03T06:38:59.792Z,20.89
2019-04-03T06:40:02.329Z,18.20
2019-04-03T06:40:59.769Z,14.80
2019-04-03T06:42:59.902Z,17.60
2019-04-03T06:43:59.754Z,16.79
2019-04-03T06:44:59.728Z,19.29
2019-04-03T06:45:59.978Z,16.60
2019-04-03T06:47:00.838Z,17.00
2019-04-03T06:47:59.697Z,22.60
2019-04-03T06:48:59.824Z,16.89
2019-04-03T06:49:59.880Z,19.50
2019-04-03T06:50:59.666Z,18.10
2019-04-03T06:51:59.653Z,16.20
2019-04-03T06:52:59.660Z,16.89
2019-04-03T06:53:59.994Z,13.50
2019-04-03T06:54:59.676Z,19.10
2019-04-03T06:55:59.631Z,13.80
2019-04-03T06:57:13.860Z,17.70
2019-04-03T06:58:00.935Z,15.80
2019-04-03T06:58:59.581Z,17.20
2019-04-03T06:59:59.570Z,14.39
2019-04-03T07:00:59.716Z,15.89
2019-04-03T07:01:59.551Z,21.39
2019-04-03T07:03:24.390Z,15.50
2019-04-03T07:04:49.157Z,14.69
2019-04-03T07:05:49.145Z,15.39
2019-04-03T07:06:49.282Z,14.89
2019-04-03T07:07:49.126Z,13.89
2019-04-03T07:08:49.207Z,13.30
2019-04-03T07:09:50.823Z,18.39
2019-04-03T07:10:55.072Z,20.39
2019-04-03T07:12:16.006Z,19.20
2019-04-03T07:13:15.229Z,16.79
2019-04-03T07:14:14.036Z,18.29
2019-04-03T07:15:14.203Z,18.89
2019-04-03T07:16:39.040Z,16.60
2019-04-03T07:17:38.856Z,15.80
2019-04-03T07:18:39.149Z,20.29
2019-04-03T07:19:40.970Z,17.50
2019-04-03T07:20:38.772Z,16.79
2019-04-03T07:21:38.985Z,15.00
2019-04-03T07:22:38.813Z,11.80
2019-04-03T07:25:03.943Z,16.60
2019-04-03T07:26:05.156Z,17.39
2019-04-03T07:27:06.067Z,14.00
2019-04-03T07:28:18.278Z,14.50
2019-04-03T07:29:03.588Z,15.50
2019-04-03T07:30:03.597Z,16.00
2019-04-03T07:31:28.511Z,11.60
2019-04-03T07:32:28.484Z,16.10
2019-04-03T07:33:28.685Z,18.60
2019-04-03T07:34:28.602Z,16.39
2019-04-03T07:35:31.552Z,17.50
2019-04-03T07:36:53.090Z,20.00
2019-04-03T07:38:18.083Z,17.60
2019-04-03T07:39:19.981Z,15.50
2019-04-03T07:40:18.708Z,17.70
2019-04-03T07:41:17.883Z,17.20
2019-04-03T07:42:17.806Z,19.29
2019-04-03T07:43:17.800Z,13.50
2019-04-03T07:44:17.835Z,19.00
2019-04-03T07:45:44.002Z,18.10
2019-04-03T07:46:42.829Z,17.50
2019-04-03T07:47:42.818Z,22.39
2019-04-03T07:48:42.811Z,19.89
2019-04-03T07:49:42.933Z,13.10
2019-04-03T07:50:43.040Z,16.79
2019-04-03T07:51:43.724Z,18.50
2019-04-03T07:52:47.430Z,14.80
2019-04-03T07:53:42.975Z,20.79
2019-04-03T07:54:42.815Z,18.00
2019-04-03T07:56:25.569Z,22.89
2019-04-03T07:57:09.762Z,20.60
2019-04-03T07:58:07.634Z,18.10
2019-04-03T07:59:07.649Z,16.79
2019-04-03T08:00:14.956Z,16.70
2019-04-03T08:01:09.864Z,14.30
2019-04-03T08:02:07.647Z,18.79
2019-04-03T08:03:10.794Z,15.50
2019-04-03T08:04:07.726Z,17.20
2019-04-03T08:05:09.579Z,16.39
2019-04-03T08:06:07.645Z,15.30
2019-04-03T08:07:07.675Z,23.89
2019-04-03T08:08:08.792Z,15.10
2019-04-03T08:09:09.341Z,20.20
2019-04-03T08:10:07.766Z,14.89
2019-04-03T08:11:07.809Z,14.80
2019-04-03T08:12:09.501Z,16.50
2019-04-03T08:13:07.686Z,18.89
2019-04-03T08:14:09.099Z,18.89
2019-04-03T08:15:08.698Z,18.29
2019-04-03T08:16:07.517Z,18.10
2019-04-03T08:17:07.841Z,12.69
2019-04-03T08:18:07.611Z,15.50
2019-04-03T08:19:23.193Z,13.10
2019-04-03T08:20:07.425Z,14.10
2019-04-03T08:22:07.480Z,17.20
2019-04-03T08:23:07.358Z,17.10
2019-04-03T08:24:08.087Z,12.69
2019-04-03T08:25:10.621Z,16.60
2019-04-03T08:26:07.333Z,13.50
2019-04-03T08:27:08.643Z,15.19
2019-04-03T08:28:07.426Z,14.60
2019-04-03T08:29:07.298Z,15.30
2019-04-03T08:30:08.565Z,15.19
2019-04-03T08:31:10.847Z,16.39
2019-04-03T08:32:09.405Z,14.19
2019-04-03T08:33:16.078Z,18.39
2019-04-03T08:34:32.738Z,13.89
2019-04-03T08:35:35.762Z,14.80
2019-04-03T08:36:32.133Z,16.39
2019-04-03T08:37:32.793Z,17.29
2019-04-03T08:38:32.336Z,18.60
2019-04-03T08:39:32.263Z,13.60
2019-04-03T08:40:57.158Z,14.30
2019-04-03T08:41:57.269Z,17.50
2019-04-03T08:42:59.532Z,14.30
2019-04-03T08:43:58.877Z,13.89
2019-04-03T08:44:56.937Z,14.60
2019-04-03T08:45:56.870Z,12.89
2019-04-03T08:47:21.746Z,18.00
2019-04-03T08:48:21.645Z,17.39
2019-04-03T08:49:21.642Z,16.29
2019-04-03T08:50:21.789Z,15.60
2019-04-03T08:51:21.613Z,14.00
2019-04-03T08:52:46.749Z,15.30
2019-04-03T08:54:11.379Z,15.69
2019-04-03T08:55:14.137Z,14.00
2019-04-03T08:56:11.660Z,15.10
2019-04-03T08:57:11.440Z,16.60
2019-04-03T08:58:11.180Z,14.69
2019-04-03T08:59:13.145Z,17.00
2019-04-03T09:00:13.193Z,15.10
2019-04-03T09:01:39.427Z,14.39
2019-04-03T09:02:35.946Z,15.30
2019-04-03T09:03:35.988Z,15.80
2019-04-03T09:04:35.926Z,16.39
2019-04-03T09:05:35.916Z,16.29
2019-04-03T09:07:01.132Z,17.89
2019-04-03T09:08:03.191Z,17.00
2019-04-03T09:09:01.206Z,12.69
2019-04-03T09:10:01.442Z,19.70
2019-04-03T09:11:00.873Z,14.30
2019-04-03T09:12:01.290Z,13.69
2019-04-03T09:13:00.908Z,18.39
2019-04-03T09:14:01.044Z,13.00
2019-04-03T09:15:00.939Z,16.29
2019-04-03T09:16:00.862Z,16.89
2019-04-03T09:17:25.809Z,13.19
2019-04-03T09:18:25.663Z,14.60
2019-04-03T09:19:42.211Z,17.50
2019-04-03T09:20:27.809Z,12.80
2019-04-03T09:21:25.627Z,10.89
2019-04-03T09:22:25.765Z,13.39
2019-04-03T09:23:25.609Z,14.39
2019-04-03T09:24:28.768Z,11.89
2019-04-03T09:25:25.586Z,13.69
2019-04-03T09:26:25.571Z,15.89
2019-04-03T09:27:25.568Z,13.80
2019-04-03T09:28:25.699Z,18.29
2019-04-03T09:29:25.560Z,16.50
2019-04-03T09:30:25.534Z,12.60
2019-04-03T09:31:26.765Z,15.39
2019-04-03T09:32:25.731Z,15.19
2019-04-03T09:33:26.361Z,12.89
2019-04-03T09:34:28.720Z,14.10
2019-04-03T09:35:25.681Z,19.89
2019-04-03T09:36:25.835Z,15.89
2019-04-03T09:37:25.462Z,20.89
2019-04-03T09:38:25.506Z,16.29
2019-04-03T09:39:25.743Z,15.19
2019-04-03T09:40:25.768Z,14.69
2019-04-03T09:41:25.442Z,13.00
2019-04-03T09:42:25.610Z,15.80
2019-04-03T09:43:25.681Z,18.29
2019-04-03T09:44:25.942Z,16.50
2019-04-03T09:45:27.633Z,12.69
2019-04-03T09:46:25.734Z,14.00
2019-04-03T09:47:25.354Z,16.70
2019-04-03T09:48:25.375Z,17.00
2019-04-03T09:50:25.430Z,15.60
2019-04-03T09:51:52.555Z,20.00
2019-04-03T09:52:54.204Z,18.20
2019-04-03T09:53:51.411Z,15.50
2019-04-03T09:55:14.930Z,32.90
2019-04-03T09:56:15.414Z,28.50
2019-04-03T09:57:14.886Z,22.00
2019-04-03T09:58:14.928Z,22.20
2019-04-03T09:59:16.282Z,18.70
2019-04-03T10:00:14.853Z,20.20
2019-04-03T10:01:18.020Z,18.00
2019-04-03T10:02:14.926Z,16.29
2019-04-03T10:03:14.894Z,20.70
2019-04-03T10:04:39.914Z,22.10
2019-04-03T10:05:39.615Z,23.89
2019-04-03T10:06:39.602Z,18.60
2019-04-03T10:07:39.687Z,20.79
2019-04-03T10:08:40.411Z,22.29
2019-04-03T10:09:41.118Z,22.50
2019-04-03T10:10:39.616Z,20.70
2019-04-03T10:11:39.777Z,21.10
2019-04-03T10:13:39.643Z,25.70
2019-04-03T10:14:39.528Z,19.39
2019-04-03T10:15:39.512Z,22.00
2019-04-03T10:16:39.707Z,21.50
2019-04-03T10:17:39.710Z,20.39
2019-04-03T10:21:39.557Z,35.50
2019-04-03T10:22:41.733Z,34.90
2019-04-03T10:23:41.453Z,28.50
2019-04-03T10:24:39.686Z,29.89
2019-04-03T10:25:39.504Z,32.70
2019-04-03T10:26:40.831Z,33.79
2019-04-03T10:27:42.649Z,41.29
2019-04-03T10:28:42.589Z,35.90
2019-04-03T10:29:39.361Z,35.09
2019-04-03T10:31:39.643Z,32.79
2019-04-03T10:32:39.375Z,26.70
2019-04-03T10:33:39.737Z,28.60
2019-04-03T10:34:39.350Z,30.79
2019-04-03T10:35:39.841Z,28.50
2019-04-03T10:36:40.160Z,29.89
2019-04-03T10:37:41.426Z,25.79
2019-04-03T10:38:41.725Z,25.70
2019-04-03T10:39:43.341Z,35.09
2019-04-03T10:40:39.278Z,25.10
2019-04-03T10:41:39.439Z,26.60
2019-04-03T10:42:39.252Z,23.70
2019-04-03T10:43:39.595Z,17.29
2019-04-03T10:44:39.213Z,23.50
2019-04-03T10:45:39.198Z,32.00
2019-04-03T10:46:39.385Z,26.39
2019-04-03T10:47:43.382Z,33.50
2019-04-03T10:48:39.175Z,29.39
2019-04-03T10:51:41.588Z,31.29
2019-04-03T10:52:39.195Z,24.10
2019-04-03T10:53:39.155Z,25.29
2019-04-03T10:54:41.395Z,39.90
2019-04-03T10:55:39.130Z,30.70
2019-04-03T10:56:39.125Z,35.00
2019-04-03T10:57:39.285Z,41.20
2019-04-03T10:58:42.252Z,34.50
2019-04-03T10:59:39.256Z,36.20
2019-04-03T11:00:39.218Z,30.50
2019-04-03T11:01:39.034Z,29.00
2019-04-03T11:03:04.170Z,23.89
2019-04-03T11:04:05.924Z,28.39
2019-04-03T11:05:04.152Z,30.50
2019-04-03T11:06:05.162Z,41.29
2019-04-03T11:07:03.912Z,29.79
2019-04-03T11:08:28.749Z,26.79
2019-04-03T11:09:28.958Z,28.20
2019-04-03T11:10:28.725Z,37.20
2019-04-03T11:11:29.678Z,33.09
2019-04-03T11:12:31.922Z,29.79
2019-04-03T11:14:03.017Z,21.50
2019-04-03T11:14:28.683Z,29.89
2019-04-03T11:15:53.659Z,33.79
2019-04-03T11:16:53.736Z,35.00
2019-04-03T11:17:55.790Z,35.70
2019-04-03T11:19:00.131Z,32.70
2019-04-03T11:20:18.469Z,35.59
2019-04-03T11:21:18.579Z,36.40
2019-04-03T11:22:18.235Z,24.89
2019-04-03T11:23:21.615Z,23.29
2019-04-03T11:24:43.317Z,36.20
2019-04-03T11:25:45.836Z,29.60
2019-04-03T11:26:43.162Z,25.60
2019-04-03T11:27:45.032Z,22.10
2019-04-03T11:28:43.684Z,27.39
2019-04-03T11:30:43.170Z,32.09
2019-04-03T11:31:43.439Z,30.89
2019-04-03T11:32:43.042Z,30.10
2019-04-03T11:33:45.929Z,34.70
2019-04-03T11:34:43.030Z,20.39
2019-04-03T11:35:43.572Z,39.00
2019-04-03T11:36:43.167Z,31.60
2019-04-03T11:38:14.062Z,36.20
2019-04-03T11:40:00.541Z,38.20
2019-04-03T11:40:34.677Z,34.70
2019-04-03T11:41:32.585Z,25.10
2019-04-03T11:43:32.698Z,25.60
2019-04-03T11:44:32.768Z,29.79
2019-04-03T11:45:32.678Z,29.50
2019-04-03T11:46:32.601Z,32.00
2019-04-03T11:47:32.569Z,36.20
2019-04-03T11:48:32.607Z,36.70
2019-04-03T11:49:57.784Z,31.29
2019-04-03T11:51:24.315Z,32.90
2019-04-03T11:52:22.434Z,34.90
2019-04-03T11:53:25.925Z,31.10
2019-04-03T11:54:22.808Z,31.79
2019-04-03T11:55:22.478Z,39.59
2019-04-03T11:56:22.780Z,37.70
2019-04-03T11:57:22.312Z,34.40
2019-04-03T11:58:22.574Z,39.70
2019-04-03T11:59:24.377Z,31.70
2019-04-03T12:00:24.413Z,39.09
2019-04-03T12:01:22.262Z,41.09
2019-04-03T12:02:22.326Z,30.10
2019-04-03T12:03:22.254Z,44.50
2019-04-03T12:04:22.253Z,34.20
2019-04-03T12:06:47.075Z,39.00
2019-04-03T12:07:56.539Z,39.09
2019-04-03T12:08:49.087Z,31.70
2019-04-03T12:09:49.390Z,45.09
2019-04-03T12:10:47.293Z,40.20
2019-04-03T12:13:47.153Z,37.59
2019-04-03T12:15:11.930Z,31.20
2019-04-03T12:16:11.760Z,36.29
2019-04-03T12:17:11.750Z,29.89
2019-04-03T12:18:11.805Z,35.79
2019-04-03T12:20:27.412Z,28.00
2019-04-03T12:21:14.155Z,42.40
2019-04-03T12:22:12.035Z,29.20
2019-04-03T12:23:11.798Z,37.09
2019-04-03T12:24:37.390Z,30.89
2019-04-03T12:27:14.646Z,32.59
2019-04-03T12:28:13.016Z,30.39
2019-04-03T12:29:54.331Z,26.50
2019-04-03T12:31:09.638Z,30.50
2019-04-03T12:31:36.798Z,34.40
2019-04-03T12:32:42.955Z,31.10
2019-04-03T12:33:37.716Z,31.79
2019-04-03T12:35:01.205Z,28.39
2019-04-03T12:36:27.586Z,36.70
2019-04-03T12:37:26.174Z,35.79
2019-04-03T12:38:26.193Z,34.90
2019-04-03T12:39:41.417Z,32.79
2019-04-03T12:40:25.949Z,33.70
2019-04-03T12:41:27.426Z,32.00
2019-04-03T12:42:26.150Z,22.89
2019-04-03T12:43:33.381Z,25.60
2019-04-03T12:45:26.913Z,27.70
2019-04-03T12:46:28.079Z,35.20
2019-04-03T12:47:28.007Z,44.09
2019-04-03T12:51:54.942Z,27.70
2019-04-03T12:52:54.953Z,32.29
2019-04-03T12:53:54.920Z,34.40
2019-04-03T12:54:54.909Z,31.10
2019-04-03T12:55:57.119Z,31.20
2019-04-03T12:56:54.941Z,34.90
2019-04-03T12:57:54.878Z,33.90
2019-04-03T12:58:54.862Z,33.00
2019-04-03T12:59:54.852Z,29.29
2019-04-03T13:00:54.842Z,32.29
2019-04-03T13:01:55.032Z,21.50
2019-04-03T13:02:55.361Z,28.70
2019-04-03T13:03:56.368Z,31.29
2019-04-03T13:04:54.885Z,24.60
2019-04-03T13:05:55.008Z,28.79
2019-04-03T13:06:54.775Z,35.70
2019-04-03T13:07:54.771Z,39.00
2019-04-03T13:08:54.961Z,33.50
2019-04-03T13:09:54.742Z,28.20
2019-04-03T13:10:54.926Z,33.00
2019-04-03T13:11:55.075Z,31.79
2019-04-03T13:12:56.538Z,31.50
2019-04-03T13:13:55.062Z,30.60
2019-04-03T13:14:55.121Z,32.20
2019-04-03T13:15:55.026Z,41.70
2019-04-03T13:16:54.673Z,33.59
2019-04-03T13:17:54.660Z,32.50
2019-04-03T13:18:54.651Z,33.29
2019-04-03T13:19:54.636Z,29.50
2019-04-03T13:20:55.306Z,31.70
2019-04-03T13:21:54.865Z,39.00
2019-04-03T13:22:55.040Z,23.50
2019-04-03T13:23:54.593Z,29.00
2019-04-03T13:24:54.584Z,29.29
2019-04-03T13:25:54.620Z,33.59
2019-04-03T13:26:57.152Z,36.70
2019-04-03T13:27:54.554Z,31.10
2019-04-03T13:28:54.543Z,42.00
2019-04-03T13:29:54.533Z,31.39
2019-04-03T13:30:54.519Z,31.20
2019-04-03T13:31:54.509Z,41.79
2019-04-03T13:33:00.170Z,41.79
2019-04-03T13:34:19.833Z,51.29
2019-04-03T13:35:19.642Z,48.70
2019-04-03T13:36:19.825Z,40.59
2019-04-03T13:37:22.377Z,38.90
2019-04-03T13:38:21.691Z,40.40
2019-04-03T13:39:19.247Z,38.50
2019-04-03T13:40:19.231Z,43.70
2019-04-03T13:41:19.232Z,44.70
2019-04-03T13:42:19.211Z,39.09
2019-04-03T13:43:20.485Z,36.59
2019-04-03T13:44:19.288Z,38.59
2019-04-03T13:45:19.296Z,37.20
2019-04-03T13:46:19.164Z,33.70
2019-04-03T13:47:19.527Z,36.29
2019-04-03T13:48:19.140Z,39.00
2019-04-03T13:49:19.615Z,22.89
2019-04-03T13:50:21.754Z,23.00
2019-04-03T13:51:19.106Z,27.39
2019-04-03T13:52:19.099Z,31.60
2019-04-03T13:53:20.477Z,30.50
2019-04-03T13:54:19.444Z,40.70
2019-04-03T13:55:19.066Z,36.59
2019-04-03T13:56:19.505Z,36.29
2019-04-03T13:57:19.433Z,33.50
2019-04-03T13:58:21.181Z,31.89
2019-04-03T13:59:19.018Z,35.29
2019-04-03T14:00:22.576Z,42.00
2019-04-03T14:01:19.581Z,33.50
2019-04-03T14:02:19.100Z,31.20
2019-04-03T14:03:19.382Z,27.29
2019-04-03T14:04:20.355Z,24.60
2019-04-03T14:05:18.959Z,20.70
2019-04-03T14:06:18.943Z,28.60